sensor_id;sensor_type;location;lat;lon;timestamp;temperature;humidity
9329;DHT22;4703;48.748;19.142;2023-06-26T00:01:40;19.10;94.80
9329;DHT22;4703;48.748;19.142;2023-06-26T00:04:07;19.20;94.60
9329;DHT22;4703;48.748;19.142;2023-06-26T00:06:41;19.10;94.50
9329;DHT22;4703;48.748;19.142;2023-06-26T00:09:09;19.20;94.60
9329;DHT22;4703;48.748;19.142;2023-06-26T00:11:36;19.20;95.00
9329;DHT22;4703;48.748;19.142;2023-06-26T00:14:03;19.20;95.40
9329;DHT22;4703;48.748;19.142;2023-06-26T00:16:30;19.10;95.10
9329;DHT22;4703;48.748;19.142;2023-06-26T00:18:57;19.10;95.20
9329;DHT22;4703;48.748;19.142;2023-06-26T00:21:25;19.10;94.80
9329;DHT22;4703;48.748;19.142;2023-06-26T00:23:53;19.20;95.10
9329;DHT22;4703;48.748;19.142;2023-06-26T00:26:20;19.10;94.80
9329;DHT22;4703;48.748;19.142;2023-06-26T00:28:47;19.20;95.10
9329;DHT22;4703;48.748;19.142;2023-06-26T00:31:14;19.10;95.70
9329;DHT22;4703;48.748;19.142;2023-06-26T00:33:42;19.20;95.90
9329;DHT22;4703;48.748;19.142;2023-06-26T00:36:09;19.10;95.40
9329;DHT22;4703;48.748;19.142;2023-06-26T00:38:36;19.10;95.20
9329;DHT22;4703;48.748;19.142;2023-06-26T00:41:03;19.10;95.40
9329;DHT22;4703;48.748;19.142;2023-06-26T00:43:30;19.10;95.90
9329;DHT22;4703;48.748;19.142;2023-06-26T00:45:57;19.10;95.70
9329;DHT22;4703;48.748;19.142;2023-06-26T00:48:25;19.20;95.80
9329;DHT22;4703;48.748;19.142;2023-06-26T00:50:52;19.10;95.30
9329;DHT22;4703;48.748;19.142;2023-06-26T00:53:19;19.00;94.90
9329;DHT22;4703;48.748;19.142;2023-06-26T00:55:46;18.90;94.50
9329;DHT22;4703;48.748;19.142;2023-06-26T00:58:13;19.10;94.60
9329;DHT22;4703;48.748;19.142;2023-06-26T01:00:41;19.10;94.30
9329;DHT22;4703;48.748;19.142;2023-06-26T01:03:09;19.00;94.10
9329;DHT22;4703;48.748;19.142;2023-06-26T01:05:36;19.00;94.30
9329;DHT22;4703;48.748;19.142;2023-06-26T01:08:05;18.90;94.40
9329;DHT22;4703;48.748;19.142;2023-06-26T01:10:32;19.00;94.20
9329;DHT22;4703;48.748;19.142;2023-06-26T01:12:59;18.90;94.20
9329;DHT22;4703;48.748;19.142;2023-06-26T01:15:26;18.90;94.00
9329;DHT22;4703;48.748;19.142;2023-06-26T01:17:53;18.90;94.30
9329;DHT22;4703;48.748;19.142;2023-06-26T01:20:21;18.70;94.30
9329;DHT22;4703;48.748;19.142;2023-06-26T01:28:42;18.70;94.50
9329;DHT22;4703;48.748;19.142;2023-06-26T01:31:11;18.70;94.60
9329;DHT22;4703;48.748;19.142;2023-06-26T01:33:40;18.70;94.80
9329;DHT22;4703;48.748;19.142;2023-06-26T01:36:07;18.70;94.80
9329;DHT22;4703;48.748;19.142;2023-06-26T01:38:34;18.60;95.10
9329;DHT22;4703;48.748;19.142;2023-06-26T01:41:03;18.60;95.00
9329;DHT22;4703;48.748;19.142;2023-06-26T01:43:57;18.70;94.90
9329;DHT22;4703;48.748;19.142;2023-06-26T01:47:04;18.60;95.00
9329;DHT22;4703;48.748;19.142;2023-06-26T01:49:38;18.60;95.30
9329;DHT22;4703;48.748;19.142;2023-06-26T01:52:19;18.60;95.60
9329;DHT22;4703;48.748;19.142;2023-06-26T01:54:59;18.60;95.70
9329;DHT22;4703;48.748;19.142;2023-06-26T01:57:38;18.50;96.00
9329;DHT22;4703;48.748;19.142;2023-06-26T02:00:06;18.50;96.00
9329;DHT22;4703;48.748;19.142;2023-06-26T02:02:36;18.50;96.10
9329;DHT22;4703;48.748;19.142;2023-06-26T02:05:04;18.50;96.00
9329;DHT22;4703;48.748;19.142;2023-06-26T02:07:31;18.40;96.00
9329;DHT22;4703;48.748;19.142;2023-06-26T02:09:58;18.50;96.20
9329;DHT22;4703;48.748;19.142;2023-06-26T02:12:25;18.30;96.30
9329;DHT22;4703;48.748;19.142;2023-06-26T02:14:52;18.30;96.40
9329;DHT22;4703;48.748;19.142;2023-06-26T02:17:19;18.30;96.80
9329;DHT22;4703;48.748;19.142;2023-06-26T02:19:46;18.30;96.70
9329;DHT22;4703;48.748;19.142;2023-06-26T02:22:16;18.30;96.60
9329;DHT22;4703;48.748;19.142;2023-06-26T02:24:43;18.30;96.70
9329;DHT22;4703;48.748;19.142;2023-06-26T02:27:11;18.20;96.70
9329;DHT22;4703;48.748;19.142;2023-06-26T02:29:39;18.20;96.70
9329;DHT22;4703;48.748;19.142;2023-06-26T02:32:07;20.30;97.20
9329;DHT22;4703;48.748;19.142;2023-06-26T02:34:35;18.20;96.00
9329;DHT22;4703;48.748;19.142;2023-06-26T02:37:02;18.20;96.00
9329;DHT22;4703;48.748;19.142;2023-06-26T02:39:29;18.10;96.00
9329;DHT22;4703;48.748;19.142;2023-06-26T02:41:56;18.10;96.40
9329;DHT22;4703;48.748;19.142;2023-06-26T02:44:23;18.10;96.80
9329;DHT22;4703;48.748;19.142;2023-06-26T02:46:50;18.00;96.20
9329;DHT22;4703;48.748;19.142;2023-06-26T02:49:17;18.10;96.40
9329;DHT22;4703;48.748;19.142;2023-06-26T02:51:48;18.00;96.20
9329;DHT22;4703;48.748;19.142;2023-06-26T02:54:15;18.00;96.40
9329;DHT22;4703;48.748;19.142;2023-06-26T02:56:42;18.00;96.70
9329;DHT22;4703;48.748;19.142;2023-06-26T02:59:14;18.00;96.90
9329;DHT22;4703;48.748;19.142;2023-06-26T03:01:41;17.90;96.90
9329;DHT22;4703;48.748;19.142;2023-06-26T03:04:09;17.90;96.80
9329;DHT22;4703;48.748;19.142;2023-06-26T03:06:37;17.90;97.00
9329;DHT22;4703;48.748;19.142;2023-06-26T03:09:04;17.80;97.20
9329;DHT22;4703;48.748;19.142;2023-06-26T03:11:31;17.80;97.20
9329;DHT22;4703;48.748;19.142;2023-06-26T03:13:58;17.80;97.50
9329;DHT22;4703;48.748;19.142;2023-06-26T03:16:25;17.70;97.80
9329;DHT22;4703;48.748;19.142;2023-06-26T03:18:52;17.80;97.60
9329;DHT22;4703;48.748;19.142;2023-06-26T03:21:19;17.70;97.60
9329;DHT22;4703;48.748;19.142;2023-06-26T03:23:46;17.70;98.00
9329;DHT22;4703;48.748;19.142;2023-06-26T03:26:13;18.40;98.70
9329;DHT22;4703;48.748;19.142;2023-06-26T03:28:41;17.60;98.80
9329;DHT22;4703;48.748;19.142;2023-06-26T03:31:11;17.70;99.10
9329;DHT22;4703;48.748;19.142;2023-06-26T03:33:38;17.70;99.50
9329;DHT22;4703;48.748;19.142;2023-06-26T03:36:05;17.60;99.70
9329;DHT22;4703;48.748;19.142;2023-06-26T03:38:32;17.60;99.60
9329;DHT22;4703;48.748;19.142;2023-06-26T03:41:00;17.60;99.70
9329;DHT22;4703;48.748;19.142;2023-06-26T03:43:27;17.60;99.90
9329;DHT22;4703;48.748;19.142;2023-06-26T03:45:54;17.60;99.90
9329;DHT22;4703;48.748;19.142;2023-06-26T03:48:21;17.50;99.90
9329;DHT22;4703;48.748;19.142;2023-06-26T03:50:48;18.50;99.90
9329;DHT22;4703;48.748;19.142;2023-06-26T03:53:15;17.50;99.90
9329;DHT22;4703;48.748;19.142;2023-06-26T03:55:42;17.50;99.90
9329;DHT22;4703;48.748;19.142;2023-06-26T03:58:09;17.50;99.90
9329;DHT22;4703;48.748;19.142;2023-06-26T04:00:39;17.50;99.90
9329;DHT22;4703;48.748;19.142;2023-06-26T04:03:07;17.70;99.90
9329;DHT22;4703;48.748;19.142;2023-06-26T04:05:35;17.50;99.90
9329;DHT22;4703;48.748;19.142;2023-06-26T04:08:03;17.50;99.90
9329;DHT22;4703;48.748;19.142;2023-06-26T04:10:30;17.50;99.90
9329;DHT22;4703;48.748;19.142;2023-06-26T04:12:57;17.60;99.90
9329;DHT22;4703;48.748;19.142;2023-06-26T04:15:24;17.60;99.90
9329;DHT22;4703;48.748;19.142;2023-06-26T04:17:51;17.60;99.90
9329;DHT22;4703;48.748;19.142;2023-06-26T04:20:18;17.60;99.90
9329;DHT22;4703;48.748;19.142;2023-06-26T04:22:45;17.70;99.90
9329;DHT22;4703;48.748;19.142;2023-06-26T04:25:12;17.70;99.90
9329;DHT22;4703;48.748;19.142;2023-06-26T04:27:39;17.70;99.90
9329;DHT22;4703;48.748;19.142;2023-06-26T04:30:08;17.80;99.90
9329;DHT22;4703;48.748;19.142;2023-06-26T04:32:36;17.80;99.90
9329;DHT22;4703;48.748;19.142;2023-06-26T04:35:03;17.90;99.90
9329;DHT22;4703;48.748;19.142;2023-06-26T04:37:30;17.90;99.90
9329;DHT22;4703;48.748;19.142;2023-06-26T04:39:57;17.90;99.90
9329;DHT22;4703;48.748;19.142;2023-06-26T04:42:24;17.90;99.90
9329;DHT22;4703;48.748;19.142;2023-06-26T04:44:51;18.00;99.90
9329;DHT22;4703;48.748;19.142;2023-06-26T04:47:18;18.00;99.90
9329;DHT22;4703;48.748;19.142;2023-06-26T04:49:45;18.10;99.90
9329;DHT22;4703;48.748;19.142;2023-06-26T04:52:13;18.00;99.90
9329;DHT22;4703;48.748;19.142;2023-06-26T04:54:40;18.20;99.90
9329;DHT22;4703;48.748;19.142;2023-06-26T04:57:07;18.20;99.90
9329;DHT22;4703;48.748;19.142;2023-06-26T04:59:35;18.20;99.90
9329;DHT22;4703;48.748;19.142;2023-06-26T05:02:03;18.30;99.90
9329;DHT22;4703;48.748;19.142;2023-06-26T05:04:31;18.30;99.90
9329;DHT22;4703;48.748;19.142;2023-06-26T05:06:59;18.40;99.90
9329;DHT22;4703;48.748;19.142;2023-06-26T05:09:26;18.30;99.90
9329;DHT22;4703;48.748;19.142;2023-06-26T05:11:53;18.30;99.90
9329;DHT22;4703;48.748;19.142;2023-06-26T05:14:20;18.30;99.90
9329;DHT22;4703;48.748;19.142;2023-06-26T05:16:50;18.40;99.90
9329;DHT22;4703;48.748;19.142;2023-06-26T05:19:17;18.40;99.90
9329;DHT22;4703;48.748;19.142;2023-06-26T05:21:45;18.50;99.90
9329;DHT22;4703;48.748;19.142;2023-06-26T05:24:13;18.50;99.90
9329;DHT22;4703;48.748;19.142;2023-06-26T05:26:42;18.60;99.90
9329;DHT22;4703;48.748;19.142;2023-06-26T05:29:10;18.70;99.90
9329;DHT22;4703;48.748;19.142;2023-06-26T05:31:40;18.70;99.90
9329;DHT22;4703;48.748;19.142;2023-06-26T05:34:10;18.80;99.90
9329;DHT22;4703;48.748;19.142;2023-06-26T05:36:38;18.80;99.90
9329;DHT22;4703;48.748;19.142;2023-06-26T05:39:06;18.90;99.90
9329;DHT22;4703;48.748;19.142;2023-06-26T05:41:33;19.00;99.90
9329;DHT22;4703;48.748;19.142;2023-06-26T05:44:01;19.00;99.90
9329;DHT22;4703;48.748;19.142;2023-06-26T05:46:28;19.00;99.90
9329;DHT22;4703;48.748;19.142;2023-06-26T05:48:55;19.10;99.90
9329;DHT22;4703;48.748;19.142;2023-06-26T05:51:22;19.20;99.90
9329;DHT22;4703;48.748;19.142;2023-06-26T05:53:49;19.20;99.90
9329;DHT22;4703;48.748;19.142;2023-06-26T05:56:17;19.30;99.90
9329;DHT22;4703;48.748;19.142;2023-06-26T05:58:46;19.40;99.90
9329;DHT22;4703;48.748;19.142;2023-06-26T06:01:13;19.50;99.90
9329;DHT22;4703;48.748;19.142;2023-06-26T06:03:40;19.60;99.90
9329;DHT22;4703;48.748;19.142;2023-06-26T06:06:07;19.60;99.90
9329;DHT22;4703;48.748;19.142;2023-06-26T06:08:34;19.70;99.90
9329;DHT22;4703;48.748;19.142;2023-06-26T06:11:02;19.70;99.90
9329;DHT22;4703;48.748;19.142;2023-06-26T06:13:29;19.70;99.90
9329;DHT22;4703;48.748;19.142;2023-06-26T06:15:56;19.70;99.90
9329;DHT22;4703;48.748;19.142;2023-06-26T06:18:23;19.80;99.90
9329;DHT22;4703;48.748;19.142;2023-06-26T06:20:50;19.80;99.90
9329;DHT22;4703;48.748;19.142;2023-06-26T06:23:17;19.80;99.90
9329;DHT22;4703;48.748;19.142;2023-06-26T06:25:44;19.80;99.90
9329;DHT22;4703;48.748;19.142;2023-06-26T06:28:11;19.90;99.90
9329;DHT22;4703;48.748;19.142;2023-06-26T06:30:38;19.90;99.90
9329;DHT22;4703;48.748;19.142;2023-06-26T06:33:11;20.00;99.90
9329;DHT22;4703;48.748;19.142;2023-06-26T06:35:38;20.10;99.90
9329;DHT22;4703;48.748;19.142;2023-06-26T06:38:06;20.20;99.90
9329;DHT22;4703;48.748;19.142;2023-06-26T06:40:33;20.30;99.90
9329;DHT22;4703;48.748;19.142;2023-06-26T06:43:00;20.20;99.70
9329;DHT22;4703;48.748;19.142;2023-06-26T06:45:27;20.30;99.80
9329;DHT22;4703;48.748;19.142;2023-06-26T06:47:54;20.30;99.60
9329;DHT22;4703;48.748;19.142;2023-06-26T06:50:21;20.40;99.30
9329;DHT22;4703;48.748;19.142;2023-06-26T06:52:48;20.40;98.60
9329;DHT22;4703;48.748;19.142;2023-06-26T06:55:15;20.40;98.40
9329;DHT22;4703;48.748;19.142;2023-06-26T06:57:42;20.50;98.60
9329;DHT22;4703;48.748;19.142;2023-06-26T07:00:11;20.50;98.50
9329;DHT22;4703;48.748;19.142;2023-06-26T07:02:42;20.50;97.80
9329;DHT22;4703;48.748;19.142;2023-06-26T07:05:11;20.50;97.50
9329;DHT22;4703;48.748;19.142;2023-06-26T07:07:39;20.40;97.50
9329;DHT22;4703;48.748;19.142;2023-06-26T07:10:10;20.40;98.00
9329;DHT22;4703;48.748;19.142;2023-06-26T07:12:38;20.50;98.30
9329;DHT22;4703;48.748;19.142;2023-06-26T07:15:06;20.70;98.30
9329;DHT22;4703;48.748;19.142;2023-06-26T07:17:35;20.60;98.00
9329;DHT22;4703;48.748;19.142;2023-06-26T07:20:13;20.70;98.20
9329;DHT22;4703;48.748;19.142;2023-06-26T07:22:44;20.80;98.20
9329;DHT22;4703;48.748;19.142;2023-06-26T07:25:14;20.90;97.90
9329;DHT22;4703;48.748;19.142;2023-06-26T07:27:42;21.00;97.90
9329;DHT22;4703;48.748;19.142;2023-06-26T07:30:10;21.00;98.00
9329;DHT22;4703;48.748;19.142;2023-06-26T07:32:38;21.00;98.60
9329;DHT22;4703;48.748;19.142;2023-06-26T07:35:05;21.10;98.90
9329;DHT22;4703;48.748;19.142;2023-06-26T07:37:32;21.10;99.20
9329;DHT22;4703;48.748;19.142;2023-06-26T07:39:59;21.20;99.20
9329;DHT22;4703;48.748;19.142;2023-06-26T07:42:27;21.30;99.30
9329;DHT22;4703;48.748;19.142;2023-06-26T07:44:54;21.30;99.30
9329;DHT22;4703;48.748;19.142;2023-06-26T07:47:21;21.40;99.30
9329;DHT22;4703;48.748;19.142;2023-06-26T07:49:48;21.40;98.90
9329;DHT22;4703;48.748;19.142;2023-06-26T07:52:15;21.50;99.00
9329;DHT22;4703;48.748;19.142;2023-06-26T07:54:42;21.50;98.70
9329;DHT22;4703;48.748;19.142;2023-06-26T07:57:12;21.60;98.50
9329;DHT22;4703;48.748;19.142;2023-06-26T07:59:43;21.60;98.70
9329;DHT22;4703;48.748;19.142;2023-06-26T08:02:13;21.70;98.00
9329;DHT22;4703;48.748;19.142;2023-06-26T08:04:40;21.80;97.70
9329;DHT22;4703;48.748;19.142;2023-06-26T08:07:07;21.90;97.50
9329;DHT22;4703;48.748;19.142;2023-06-26T08:09:34;22.00;97.40
9329;DHT22;4703;48.748;19.142;2023-06-26T08:12:01;22.10;97.00
9329;DHT22;4703;48.748;19.142;2023-06-26T08:14:29;22.20;96.80
9329;DHT22;4703;48.748;19.142;2023-06-26T08:16:56;22.30;96.80
9329;DHT22;4703;48.748;19.142;2023-06-26T08:19:23;22.40;97.00
9329;DHT22;4703;48.748;19.142;2023-06-26T08:21:50;22.40;96.80
9329;DHT22;4703;48.748;19.142;2023-06-26T08:24:17;22.60;96.70
9329;DHT22;4703;48.748;19.142;2023-06-26T08:26:46;22.70;96.20
9329;DHT22;4703;48.748;19.142;2023-06-26T08:29:14;22.90;95.20
9329;DHT22;4703;48.748;19.142;2023-06-26T08:31:42;23.00;94.50
9329;DHT22;4703;48.748;19.142;2023-06-26T08:34:09;23.10;93.30
9329;DHT22;4703;48.748;19.142;2023-06-26T08:36:36;23.20;92.70
9329;DHT22;4703;48.748;19.142;2023-06-26T08:39:03;23.40;92.80
9329;DHT22;4703;48.748;19.142;2023-06-26T08:41:32;23.50;92.80
9329;DHT22;4703;48.748;19.142;2023-06-26T08:43:59;23.60;93.50
9329;DHT22;4703;48.748;19.142;2023-06-26T08:46:28;23.80;93.60
9329;DHT22;4703;48.748;19.142;2023-06-26T08:48:56;23.90;92.70
9329;DHT22;4703;48.748;19.142;2023-06-26T08:51:28;24.10;91.40
9329;DHT22;4703;48.748;19.142;2023-06-26T08:56:37;24.20;91.70
9329;DHT22;4703;48.748;19.142;2023-06-26T08:59:07;24.30;91.70
9329;DHT22;4703;48.748;19.142;2023-06-26T09:01:37;24.40;91.70
9329;DHT22;4703;48.748;19.142;2023-06-26T09:04:05;24.40;90.40
9329;DHT22;4703;48.748;19.142;2023-06-26T09:06:33;24.40;90.00
9329;DHT22;4703;48.748;19.142;2023-06-26T09:09:00;24.50;88.40
9329;DHT22;4703;48.748;19.142;2023-06-26T09:11:28;24.50;87.90
9329;DHT22;4703;48.748;19.142;2023-06-26T09:13:55;24.60;88.20
9329;DHT22;4703;48.748;19.142;2023-06-26T09:16:26;24.70;87.80
9329;DHT22;4703;48.748;19.142;2023-06-26T09:18:55;24.70;90.30
9329;DHT22;4703;48.748;19.142;2023-06-26T09:21:23;23.80;88.30
9329;DHT22;4703;48.748;19.142;2023-06-26T09:23:52;24.40;90.10
9329;DHT22;4703;48.748;19.142;2023-06-26T09:26:21;24.30;88.70
9329;DHT22;4703;48.748;19.142;2023-06-26T09:28:49;24.30;87.90
9329;DHT22;4703;48.748;19.142;2023-06-26T09:31:17;24.30;86.60
9329;DHT22;4703;48.748;19.142;2023-06-26T09:34:04;24.30;86.10
9329;DHT22;4703;48.748;19.142;2023-06-26T09:36:32;24.30;89.20
9329;DHT22;4703;48.748;19.142;2023-06-26T09:39:07;24.30;89.20
9329;DHT22;4703;48.748;19.142;2023-06-26T09:41:41;24.20;90.10
9329;DHT22;4703;48.748;19.142;2023-06-26T09:44:11;24.30;91.30
9329;DHT22;4703;48.748;19.142;2023-06-26T09:46:40;24.40;91.10
9329;DHT22;4703;48.748;19.142;2023-06-26T09:49:11;24.60;89.10
9329;DHT22;4703;48.748;19.142;2023-06-26T09:51:40;24.70;88.60
9329;DHT22;4703;48.748;19.142;2023-06-26T09:54:09;24.70;86.30
9329;DHT22;4703;48.748;19.142;2023-06-26T09:56:36;24.70;86.90
9329;DHT22;4703;48.748;19.142;2023-06-26T09:59:05;24.70;87.60
9329;DHT22;4703;48.748;19.142;2023-06-26T10:01:33;24.70;87.50
9329;DHT22;4703;48.748;19.142;2023-06-26T10:04:01;24.70;87.90
9329;DHT22;4703;48.748;19.142;2023-06-26T10:06:35;24.90;89.60
9329;DHT22;4703;48.748;19.142;2023-06-26T10:09:03;24.90;88.90
9329;DHT22;4703;48.748;19.142;2023-06-26T10:11:48;24.90;83.70
9329;DHT22;4703;48.748;19.142;2023-06-26T10:14:26;24.80;82.60
9329;DHT22;4703;48.748;19.142;2023-06-26T10:16:58;24.80;84.30
9329;DHT22;4703;48.748;19.142;2023-06-26T10:19:27;24.90;84.50
9329;DHT22;4703;48.748;19.142;2023-06-26T10:21:55;25.10;83.80
9329;DHT22;4703;48.748;19.142;2023-06-26T10:24:23;25.10;81.80
9329;DHT22;4703;48.748;19.142;2023-06-26T10:26:57;25.30;83.30
9329;DHT22;4703;48.748;19.142;2023-06-26T10:29:32;25.50;84.70
9329;DHT22;4703;48.748;19.142;2023-06-26T10:32:02;25.80;83.10
9329;DHT22;4703;48.748;19.142;2023-06-26T10:34:30;26.10;84.00
9329;DHT22;4703;48.748;19.142;2023-06-26T10:37:02;26.40;83.70
9329;DHT22;4703;48.748;19.142;2023-06-26T10:42:17;26.90;77.90
9329;DHT22;4703;48.748;19.142;2023-06-26T10:44:48;27.10;78.50
9329;DHT22;4703;48.748;19.142;2023-06-26T10:47:32;27.20;78.10
9329;DHT22;4703;48.748;19.142;2023-06-26T10:50:20;27.30;77.00
9329;DHT22;4703;48.748;19.142;2023-06-26T10:53:14;27.60;77.90
9329;DHT22;4703;48.748;19.142;2023-06-26T10:55:50;28.10;74.50
9329;DHT22;4703;48.748;19.142;2023-06-26T10:58:27;28.40;74.00
9329;DHT22;4703;48.748;19.142;2023-06-26T11:01:25;28.70;72.10
9329;DHT22;4703;48.748;19.142;2023-06-26T11:06:31;29.40;72.00
9329;DHT22;4703;48.748;19.142;2023-06-26T11:09:01;29.60;71.90
9329;DHT22;4703;48.748;19.142;2023-06-26T11:14:26;30.10;70.50
9329;DHT22;4703;48.748;19.142;2023-06-26T11:16:58;30.00;66.10
9329;DHT22;4703;48.748;19.142;2023-06-26T11:19:26;29.90;64.20
9329;DHT22;4703;48.748;19.142;2023-06-26T11:21:59;29.70;60.30
9329;DHT22;4703;48.748;19.142;2023-06-26T11:24:27;29.80;61.50
9329;DHT22;4703;48.748;19.142;2023-06-26T11:27:00;30.30;61.70
9329;DHT22;4703;48.748;19.142;2023-06-26T11:29:29;30.80;61.10
9329;DHT22;4703;48.748;19.142;2023-06-26T11:32:01;31.20;58.30
9329;DHT22;4703;48.748;19.142;2023-06-26T11:34:31;31.50;54.80
9329;DHT22;4703;48.748;19.142;2023-06-26T11:36:59;32.00;54.00
9329;DHT22;4703;48.748;19.142;2023-06-26T11:39:28;32.10;53.30
9329;DHT22;4703;48.748;19.142;2023-06-26T11:41:55;32.40;53.00
9329;DHT22;4703;48.748;19.142;2023-06-26T11:44:23;32.70;52.10
9329;DHT22;4703;48.748;19.142;2023-06-26T11:46:53;32.90;51.00
9329;DHT22;4703;48.748;19.142;2023-06-26T11:49:22;33.10;51.30
9329;DHT22;4703;48.748;19.142;2023-06-26T11:51:52;33.30;51.40
9329;DHT22;4703;48.748;19.142;2023-06-26T11:54:25;33.50;50.90
9329;DHT22;4703;48.748;19.142;2023-06-26T11:56:55;33.70;46.70
9329;DHT22;4703;48.748;19.142;2023-06-26T11:59:39;33.60;45.40
9329;DHT22;4703;48.748;19.142;2023-06-26T12:02:12;33.20;46.10
9329;DHT22;4703;48.748;19.142;2023-06-26T12:04:42;32.80;47.00
9329;DHT22;4703;48.748;19.142;2023-06-26T12:07:11;32.20;48.00
9329;DHT22;4703;48.748;19.142;2023-06-26T12:09:44;31.60;45.40
9329;DHT22;4703;48.748;19.142;2023-06-26T12:12:15;30.90;48.30
9329;DHT22;4703;48.748;19.142;2023-06-26T12:14:43;30.50;50.20
9329;DHT22;4703;48.748;19.142;2023-06-26T12:17:12;30.30;51.50
9329;DHT22;4703;48.748;19.142;2023-06-26T12:19:45;30.10;52.30
9329;DHT22;4703;48.748;19.142;2023-06-26T12:22:19;29.70;51.50
9329;DHT22;4703;48.748;19.142;2023-06-26T12:24:47;29.40;53.30
9329;DHT22;4703;48.748;19.142;2023-06-26T12:27:17;29.50;54.00
9329;DHT22;4703;48.748;19.142;2023-06-26T12:29:51;29.90;53.30
9329;DHT22;4703;48.748;19.142;2023-06-26T12:32:23;30.20;53.30
9329;DHT22;4703;48.748;19.142;2023-06-26T12:34:52;30.50;52.20
9329;DHT22;4703;48.748;19.142;2023-06-26T12:37:20;30.80;51.10
9329;DHT22;4703;48.748;19.142;2023-06-26T12:42:15;31.70;48.80
9329;DHT22;4703;48.748;19.142;2023-06-26T12:44:44;32.10;49.50
9329;DHT22;4703;48.748;19.142;2023-06-26T12:47:11;32.50;49.30
9329;DHT22;4703;48.748;19.142;2023-06-26T12:49:41;32.50;47.10
9329;DHT22;4703;48.748;19.142;2023-06-26T12:52:14;32.80;48.40
9329;DHT22;4703;48.748;19.142;2023-06-26T12:54:43;33.20;47.90
9329;DHT22;4703;48.748;19.142;2023-06-26T12:57:10;33.70;50.40
9329;DHT22;4703;48.748;19.142;2023-06-26T12:59:38;33.80;45.10
9329;DHT22;4703;48.748;19.142;2023-06-26T13:02:06;33.80;45.10
9329;DHT22;4703;48.748;19.142;2023-06-26T13:04:33;33.70;45.70
9329;DHT22;4703;48.748;19.142;2023-06-26T13:07:01;33.90;44.60
9329;DHT22;4703;48.748;19.142;2023-06-26T13:09:32;34.10;45.50
9329;DHT22;4703;48.748;19.142;2023-06-26T13:12:01;34.20;44.00
9329;DHT22;4703;48.748;19.142;2023-06-26T13:14:31;34.30;44.20
9329;DHT22;4703;48.748;19.142;2023-06-26T13:16:59;34.30;44.00
9329;DHT22;4703;48.748;19.142;2023-06-26T13:19:27;34.30;43.40
9329;DHT22;4703;48.748;19.142;2023-06-26T13:21:54;34.00;43.30
9329;DHT22;4703;48.748;19.142;2023-06-26T13:24:21;33.70;44.00
9329;DHT22;4703;48.748;19.142;2023-06-26T13:26:48;33.40;44.00
9329;DHT22;4703;48.748;19.142;2023-06-26T13:29:15;33.10;45.10
9329;DHT22;4703;48.748;19.142;2023-06-26T13:31:43;33.00;44.80
9329;DHT22;4703;48.748;19.142;2023-06-26T13:34:22;33.00;46.70
9329;DHT22;4703;48.748;19.142;2023-06-26T13:36:50;33.10;45.60
9329;DHT22;4703;48.748;19.142;2023-06-26T13:39:18;33.30;46.10
9329;DHT22;4703;48.748;19.142;2023-06-26T13:41:45;33.50;45.30
9329;DHT22;4703;48.748;19.142;2023-06-26T13:44:12;33.60;45.70
9329;DHT22;4703;48.748;19.142;2023-06-26T13:46:59;33.60;44.70
9329;DHT22;4703;48.748;19.142;2023-06-26T13:49:27;33.80;44.50
9329;DHT22;4703;48.748;19.142;2023-06-26T13:51:54;33.50;43.60
9329;DHT22;4703;48.748;19.142;2023-06-26T13:54:21;33.10;46.30
9329;DHT22;4703;48.748;19.142;2023-06-26T13:56:48;32.90;44.20
9329;DHT22;4703;48.748;19.142;2023-06-26T13:59:15;32.70;44.00
9329;DHT22;4703;48.748;19.142;2023-06-26T14:01:42;32.20;43.50
9329;DHT22;4703;48.748;19.142;2023-06-26T14:04:10;31.60;44.80
9329;DHT22;4703;48.748;19.142;2023-06-26T14:06:38;31.10;46.60
9329;DHT22;4703;48.748;19.142;2023-06-26T14:09:05;30.80;46.50
9329;DHT22;4703;48.748;19.142;2023-06-26T14:11:32;30.60;46.70
9329;DHT22;4703;48.748;19.142;2023-06-26T14:13:59;30.30;46.60
9329;DHT22;4703;48.748;19.142;2023-06-26T14:16:27;30.10;48.00
9329;DHT22;4703;48.748;19.142;2023-06-26T14:18:55;30.20;47.60
9329;DHT22;4703;48.748;19.142;2023-06-26T14:21:23;30.40;46.70
9329;DHT22;4703;48.748;19.142;2023-06-26T14:23:50;30.60;46.20
9329;DHT22;4703;48.748;19.142;2023-06-26T14:26:17;31.00;45.90
9329;DHT22;4703;48.748;19.142;2023-06-26T14:28:44;31.60;45.40
9329;DHT22;4703;48.748;19.142;2023-06-26T14:31:12;31.80;44.50
9329;DHT22;4703;48.748;19.142;2023-06-26T14:33:39;31.80;42.80
9329;DHT22;4703;48.748;19.142;2023-06-26T14:36:06;31.60;43.90
9329;DHT22;4703;48.748;19.142;2023-06-26T14:38:33;31.50;43.20
9329;DHT22;4703;48.748;19.142;2023-06-26T14:41:00;31.80;45.00
9329;DHT22;4703;48.748;19.142;2023-06-26T14:43:28;32.30;43.30
9329;DHT22;4703;48.748;19.142;2023-06-26T14:45:55;33.00;43.50
9329;DHT22;4703;48.748;19.142;2023-06-26T14:48:23;33.60;41.10
9329;DHT22;4703;48.748;19.142;2023-06-26T14:50:50;34.30;40.90
9329;DHT22;4703;48.748;19.142;2023-06-26T14:53:17;34.80;40.40
9329;DHT22;4703;48.748;19.142;2023-06-26T14:55:44;35.30;37.70
9329;DHT22;4703;48.748;19.142;2023-06-26T14:58:11;35.80;37.80
9329;DHT22;4703;48.748;19.142;2023-06-26T15:00:38;36.10;38.30
9329;DHT22;4703;48.748;19.142;2023-06-26T15:03:06;36.40;36.90
9329;DHT22;4703;48.748;19.142;2023-06-26T15:05:33;36.50;36.00
9329;DHT22;4703;48.748;19.142;2023-06-26T15:08:01;36.40;36.00
9329;DHT22;4703;48.748;19.142;2023-06-26T15:10:28;36.30;35.30
9329;DHT22;4703;48.748;19.142;2023-06-26T15:12:58;36.20;33.50
9329;DHT22;4703;48.748;19.142;2023-06-26T15:15:25;36.40;34.30
9329;DHT22;4703;48.748;19.142;2023-06-26T15:17:52;36.70;34.50
9329;DHT22;4703;48.748;19.142;2023-06-26T15:20:19;36.60;32.40
9329;DHT22;4703;48.748;19.142;2023-06-26T15:22:46;36.60;34.30
9329;DHT22;4703;48.748;19.142;2023-06-26T15:25:13;36.90;34.30
9329;DHT22;4703;48.748;19.142;2023-06-26T15:27:40;37.10;33.40
9329;DHT22;4703;48.748;19.142;2023-06-26T15:30:07;37.10;34.40
9329;DHT22;4703;48.748;19.142;2023-06-26T15:32:34;37.20;34.10
9329;DHT22;4703;48.748;19.142;2023-06-26T15:35:02;37.10;32.90
9329;DHT22;4703;48.748;19.142;2023-06-26T15:37:30;37.20;33.30
9329;DHT22;4703;48.748;19.142;2023-06-26T15:39:57;37.20;32.40
9329;DHT22;4703;48.748;19.142;2023-06-26T15:42:27;37.30;31.90
9329;DHT22;4703;48.748;19.142;2023-06-26T15:44:55;37.20;33.80
9329;DHT22;4703;48.748;19.142;2023-06-26T15:47:22;37.00;32.60
9329;DHT22;4703;48.748;19.142;2023-06-26T15:49:49;36.60;31.20
9329;DHT22;4703;48.748;19.142;2023-06-26T15:52:16;35.90;32.10
9329;DHT22;4703;48.748;19.142;2023-06-26T15:54:43;34.90;32.10
9329;DHT22;4703;48.748;19.142;2023-06-26T15:57:10;34.00;33.20
9329;DHT22;4703;48.748;19.142;2023-06-26T15:59:37;33.30;34.60
9329;DHT22;4703;48.748;19.142;2023-06-26T16:02:04;32.70;36.30
9329;DHT22;4703;48.748;19.142;2023-06-26T16:04:32;32.40;37.40
9329;DHT22;4703;48.748;19.142;2023-06-26T16:06:59;31.90;37.30
9329;DHT22;4703;48.748;19.142;2023-06-26T16:09:26;31.50;39.10
9329;DHT22;4703;48.748;19.142;2023-06-26T16:11:54;31.30;39.40
9329;DHT22;4703;48.748;19.142;2023-06-26T16:14:21;31.20;39.80